createdAt,value
2023-04-11T00:00:04.780Z,962.89
2023-04-11T00:01:04.524Z,962.91
2023-04-11T00:02:04.693Z,962.94
2023-04-11T00:03:04.713Z,963.02
2023-04-11T00:04:04.827Z,963.08
2023-04-11T00:05:04.643Z,963.14
2023-04-11T00:06:04.303Z,963.19
2023-04-11T00:07:04.439Z,963.20
2023-04-11T00:08:04.221Z,963.23
2023-04-11T00:09:04.167Z,963.22
2023-04-11T00:10:04.142Z,963.26
2023-04-11T00:11:04.253Z,963.19
2023-04-11T00:12:04.068Z,963.14
2023-04-11T00:13:04.269Z,963.14
2023-04-11T00:14:03.950Z,963.10
2023-04-11T00:15:03.911Z,963.14
2023-04-11T00:16:04.317Z,963.12
2023-04-11T00:17:03.817Z,963.13
2023-04-11T00:18:03.936Z,963.13
2023-04-11T00:19:03.735Z,963.05
2023-04-11T00:20:03.693Z,963.02
2023-04-11T00:21:03.689Z,962.96
2023-04-11T00:22:03.715Z,963.01
2023-04-11T00:23:03.556Z,962.91
2023-04-11T00:24:03.737Z,962.89
2023-04-11T00:25:03.503Z,962.84
2023-04-11T00:26:03.563Z,962.74
2023-04-11T00:27:03.380Z,962.74
2023-04-11T00:28:03.759Z,962.76
2023-04-11T00:29:03.291Z,962.75
2023-04-11T00:30:03.372Z,962.78
2023-04-11T00:31:03.208Z,962.71
2023-04-11T00:32:03.459Z,962.77
2023-04-11T00:33:03.128Z,962.76
2023-04-11T00:34:03.413Z,962.90
2023-04-11T00:35:03.263Z,962.94
2023-04-11T00:36:03.127Z,962.94
2023-04-11T00:37:03.312Z,963.00
2023-04-11T00:38:02.901Z,963.02
2023-04-11T00:39:03.222Z,962.96
2023-04-11T00:40:02.822Z,962.93
2023-04-11T00:41:03.044Z,962.79
2023-04-11T00:42:02.719Z,962.74
2023-04-11T00:43:02.848Z,962.80
2023-04-11T00:44:02.710Z,962.78
2023-04-11T00:45:02.866Z,962.60
2023-04-11T00:46:02.585Z,962.57
2023-04-11T00:47:02.503Z,962.61
2023-04-11T00:48:02.692Z,962.58
2023-04-11T00:49:02.408Z,962.59
2023-04-11T00:50:02.486Z,962.63
2023-04-11T00:51:02.544Z,962.59
2023-04-11T00:52:02.312Z,962.54
2023-04-11T00:53:02.564Z,962.61
2023-04-11T00:54:02.314Z,962.75
2023-04-11T00:55:02.185Z,962.58
2023-04-11T00:56:02.322Z,962.42
2023-04-11T00:57:02.106Z,962.37
2023-04-11T00:58:02.348Z,962.26
2023-04-11T00:59:01.979Z,962.32
2023-04-11T01:00:02.149Z,962.38
2023-04-11T01:01:01.904Z,962.42
2023-04-11T01:02:02.155Z,962.37
2023-04-11T01:03:01.945Z,962.42
2023-04-11T01:04:02.337Z,962.49
2023-04-11T01:05:01.730Z,962.47
2023-04-11T01:06:01.856Z,962.42
2023-04-11T01:07:01.625Z,962.42
2023-04-11T01:08:01.582Z,962.32
2023-04-11T01:09:01.872Z,962.26
2023-04-11T01:10:01.630Z,962.17
2023-04-11T01:11:01.450Z,962.14
2023-04-11T01:12:01.671Z,962.18
2023-04-11T01:13:01.371Z,962.26
2023-04-11T01:14:01.339Z,962.28
2023-04-11T01:15:01.447Z,962.28
2023-04-11T01:16:01.503Z,962.27
2023-04-11T01:17:01.559Z,962.17
2023-04-11T01:18:01.220Z,962.13
2023-04-11T01:19:01.101Z,962.02
2023-04-11T01:20:01.058Z,961.99
2023-04-11T01:21:01.294Z,961.94
2023-04-11T01:22:01.354Z,962.02
2023-04-11T01:23:01.094Z,961.96
2023-04-11T01:24:00.876Z,961.93
2023-04-11T01:25:01.111Z,961.99
2023-04-11T01:26:00.788Z,962.09
2023-04-11T01:27:00.920Z,962.11
2023-04-11T01:28:00.896Z,962.11
2023-04-11T01:29:00.934Z,962.16
2023-04-11T01:30:00.614Z,962.16
2023-04-11T01:31:00.780Z,962.18
2023-04-11T01:32:00.539Z,962.26
2023-04-11T01:33:00.813Z,962.21
2023-04-11T01:34:00.522Z,962.27
2023-04-11T01:35:00.423Z,962.25
2023-04-11T01:36:00.364Z,962.23
2023-04-11T01:37:00.501Z,962.21
2023-04-11T01:38:00.264Z,962.17
2023-04-11T01:39:00.393Z,962.19
2023-04-11T01:40:00.463Z,962.21
2023-04-11T01:41:00.416Z,962.23
2023-04-11T01:42:00.100Z,962.19
2023-04-11T01:43:00.222Z,962.17
2023-04-11T01:43:59.997Z,962.23
2023-04-11T01:45:00.228Z,962.24
2023-04-11T01:45:59.906Z,962.22
2023-04-11T01:47:00.050Z,962.24
2023-04-11T01:47:59.991Z,962.28
2023-04-11T01:49:00.292Z,962.30
2023-04-11T01:49:59.729Z,962.30
2023-04-11T01:50:59.859Z,962.27
2023-04-11T01:51:59.638Z,962.17
2023-04-11T01:52:59.881Z,962.07
2023-04-11T01:53:59.561Z,962.02
2023-04-11T01:54:59.690Z,962.01
2023-04-11T01:55:59.464Z,962.04
2023-04-11T01:56:59.706Z,962.02
2023-04-11T01:57:59.372Z,962.07
2023-04-11T01:58:59.557Z,962.09
2023-04-11T01:59:59.284Z,962.13
2023-04-11T02:00:59.542Z,962.24
2023-04-11T02:01:59.438Z,962.19
2023-04-11T02:02:59.295Z,962.11
2023-04-11T02:03:59.456Z,962.14
2023-04-11T02:04:59.067Z,962.08
2023-04-11T02:05:59.377Z,962.16
2023-04-11T02:07:00.187Z,962.17
2023-04-11T02:07:58.933Z,962.16
2023-04-11T02:08:59.190Z,962.20
2023-04-11T02:09:58.851Z,962.28
2023-04-11T02:10:58.988Z,962.26
2023-04-11T02:11:58.805Z,962.32
2023-04-11T02:12:58.722Z,962.24
2023-04-11T02:13:58.804Z,962.37
2023-04-11T02:14:58.623Z,962.38
2023-04-11T02:15:58.908Z,962.37
2023-04-11T02:16:58.538Z,962.45
2023-04-11T02:17:58.717Z,962.38
2023-04-11T02:18:58.558Z,962.43
2023-04-11T02:19:58.640Z,962.34
2023-04-11T02:20:58.376Z,962.43
2023-04-11T02:21:58.459Z,962.37
2023-04-11T02:22:58.270Z,962.34
2023-04-11T02:23:59.716Z,962.38
2023-04-11T02:24:58.188Z,962.40
2023-04-11T02:25:58.284Z,962.40
2023-04-11T02:26:58.094Z,962.45
2023-04-11T02:27:58.294Z,962.48
2023-04-11T02:28:58.149Z,962.36
2023-04-11T02:29:58.317Z,962.28
2023-04-11T02:30:57.949Z,962.33
2023-04-11T02:31:58.254Z,962.27
2023-04-11T02:32:57.853Z,962.24
2023-04-11T02:33:57.844Z,962.31
2023-04-11T02:34:57.791Z,962.30
2023-04-11T02:35:57.984Z,962.20
2023-04-11T02:36:57.657Z,962.17
2023-04-11T02:37:57.814Z,962.13
2023-04-11T02:38:57.651Z,962.15
2023-04-11T02:39:57.802Z,962.12
2023-04-11T02:40:57.480Z,962.17
2023-04-11T02:41:57.807Z,962.17
2023-04-11T02:42:57.388Z,962.19
2023-04-11T02:43:57.594Z,962.23
2023-04-11T02:44:57.605Z,962.23
2023-04-11T02:46:09.460Z,962.25
2023-04-11T02:46:57.229Z,962.21
2023-04-11T02:47:57.672Z,962.23
2023-04-11T02:48:57.265Z,962.32
2023-04-11T02:49:57.191Z,962.26
2023-04-11T02:50:57.030Z,962.31
2023-04-11T02:51:57.145Z,962.41
2023-04-11T02:52:56.952Z,962.35
2023-04-11T02:53:56.953Z,962.42
2023-04-11T02:54:56.865Z,962.58
2023-04-11T02:55:56.971Z,962.52
2023-04-11T02:56:56.779Z,962.48
2023-04-11T02:57:56.780Z,962.56
2023-04-11T02:58:56.832Z,962.59
2023-04-11T02:59:56.789Z,962.59
2023-04-11T03:00:56.584Z,962.56
2023-04-11T03:01:56.999Z,962.59
2023-04-11T03:02:56.753Z,962.66
2023-04-11T03:03:56.722Z,962.65
2023-04-11T03:04:56.409Z,962.62
2023-04-11T03:05:56.369Z,962.75
2023-04-11T03:06:56.338Z,962.76
2023-04-11T03:07:56.441Z,962.79
2023-04-11T03:08:56.709Z,962.76
2023-04-11T03:09:56.253Z,962.74
2023-04-11T03:10:56.137Z,962.81
2023-04-11T03:11:56.120Z,962.81
2023-04-11T03:12:56.269Z,962.99
2023-04-11T03:13:56.120Z,962.87
2023-04-11T03:14:56.079Z,962.94
2023-04-11T03:15:55.976Z,962.83
2023-04-11T03:16:55.871Z,962.93
2023-04-11T03:17:55.887Z,962.94
2023-04-11T03:18:56.086Z,962.78
2023-04-11T03:19:55.778Z,962.88
2023-04-11T03:20:55.922Z,962.71
2023-04-11T03:21:55.648Z,962.86
2023-04-11T03:22:55.851Z,962.81
2023-04-11T03:23:55.574Z,962.83
2023-04-11T03:24:55.556Z,962.91
2023-04-11T03:25:55.614Z,962.80
2023-04-11T03:26:55.591Z,963.01
2023-04-11T03:27:55.376Z,962.88
2023-04-11T03:28:55.489Z,962.91
2023-04-11T03:29:55.287Z,962.99
2023-04-11T03:30:55.414Z,962.94
2023-04-11T03:31:55.226Z,963.00
2023-04-11T03:32:55.190Z,963.04
2023-04-11T03:33:55.201Z,963.07
2023-04-11T03:34:55.068Z,962.93
2023-04-11T03:35:55.230Z,963.18
2023-04-11T03:36:55.062Z,963.05
2023-04-11T03:37:54.922Z,963.02
2023-04-11T03:38:55.198Z,963.11
2023-04-11T03:39:55.054Z,962.95
2023-04-11T03:40:54.793Z,962.94
2023-04-11T03:41:54.857Z,962.92
2023-04-11T03:42:54.720Z,962.88
2023-04-11T03:43:54.651Z,962.85
2023-04-11T03:44:54.664Z,962.83
2023-04-11T03:45:54.555Z,962.87
2023-04-11T03:46:54.705Z,962.79
2023-04-11T03:47:54.491Z,962.70
2023-04-11T03:48:54.775Z,962.69
2023-04-11T03:49:54.374Z,962.84
2023-04-11T03:50:54.510Z,962.79
2023-04-11T03:51:54.287Z,962.83
2023-04-11T03:52:54.317Z,962.84
2023-04-11T03:53:54.211Z,962.80
2023-04-11T03:54:54.346Z,962.81
2023-04-11T03:55:54.103Z,962.74
2023-04-11T03:56:54.147Z,962.84
2023-04-11T03:57:54.005Z,962.84
2023-04-11T03:58:54.280Z,962.69
2023-04-11T03:59:53.953Z,962.80
2023-04-11T04:00:54.014Z,962.82
2023-04-11T04:01:54.017Z,962.82
2023-04-11T04:02:53.934Z,962.92
2023-04-11T04:03:54.100Z,962.76
2023-04-11T04:04:53.871Z,962.82
2023-04-11T04:05:53.644Z,962.72
2023-04-11T04:06:53.796Z,962.65
2023-04-11T04:07:55.636Z,962.74
2023-04-11T04:08:53.610Z,962.74
2023-04-11T04:09:53.456Z,962.70
2023-04-11T04:10:53.408Z,962.74
2023-04-11T04:11:53.428Z,962.79
2023-04-11T04:12:53.488Z,962.80
2023-04-11T04:13:53.758Z,962.81
2023-04-11T04:14:53.232Z,962.82
2023-04-11T04:15:53.189Z,962.91
2023-04-11T04:16:53.219Z,962.94
2023-04-11T04:17:53.368Z,963.00
2023-04-11T04:18:53.053Z,962.95
2023-04-11T04:19:53.079Z,962.97
2023-04-11T04:20:52.955Z,962.99
2023-04-11T04:21:53.094Z,962.96
2023-04-11T04:22:52.859Z,962.98
2023-04-11T04:23:52.915Z,963.05
2023-04-11T04:24:52.961Z,963.06
2023-04-11T04:25:52.935Z,963.07
2023-04-11T04:26:52.681Z,963.07
2023-04-11T04:27:52.728Z,963.10
2023-04-11T04:28:52.589Z,963.10
2023-04-11T04:29:55.964Z,963.13
2023-04-11T04:30:52.513Z,963.17
2023-04-11T04:31:52.514Z,963.14
2023-04-11T04:32:52.439Z,963.19
2023-04-11T04:33:52.570Z,963.19
2023-04-11T04:34:52.313Z,963.21
2023-04-11T04:35:52.491Z,963.25
2023-04-11T04:36:52.440Z,963.15
2023-04-11T04:37:52.390Z,963.17
2023-04-11T04:38:52.139Z,963.24
2023-04-11T04:39:52.200Z,963.24
2023-04-11T04:40:52.046Z,963.16
2023-04-11T04:41:52.217Z,963.20
2023-04-11T04:42:51.965Z,963.14
2023-04-11T04:43:52.026Z,963.23
2023-04-11T04:44:51.871Z,963.17
2023-04-11T04:45:52.054Z,963.17
2023-04-11T04:46:51.774Z,963.20
2023-04-11T04:47:51.778Z,963.14
2023-04-11T04:48:51.919Z,963.06
2023-04-11T04:49:51.868Z,963.12
2023-04-11T04:50:51.589Z,963.17
2023-04-11T04:51:51.675Z,963.25
2023-04-11T04:52:51.507Z,963.24
2023-04-11T04:53:51.689Z,963.43
2023-04-11T04:54:51.397Z,963.27
2023-04-11T04:55:51.512Z,963.29
2023-04-11T04:56:51.309Z,963.29
2023-04-11T04:57:51.521Z,963.25
2023-04-11T04:58:51.222Z,963.18
2023-04-11T04:59:51.532Z,963.19
2023-04-11T05:00:51.160Z,963.25
2023-04-11T05:01:51.221Z,963.25
2023-04-11T05:02:51.138Z,963.26
2023-04-11T05:03:51.117Z,963.33
2023-04-11T05:04:50.943Z,963.37
2023-04-11T05:05:51.165Z,963.35
2023-04-11T05:06:51.020Z,963.33
2023-04-11T05:07:50.980Z,963.33
2023-04-11T05:08:50.761Z,963.29
2023-04-11T05:09:50.732Z,963.34
2023-04-11T05:10:50.791Z,963.43
2023-04-11T05:11:50.658Z,963.46
2023-04-11T05:12:50.806Z,963.43
2023-04-11T05:13:50.537Z,963.46
2023-04-11T05:14:50.486Z,963.51
2023-04-11T05:15:50.447Z,963.49
2023-04-11T05:16:50.858Z,963.48
2023-04-11T05:17:50.371Z,963.51
2023-04-11T05:18:50.441Z,963.46
2023-04-11T05:19:50.445Z,963.51
2023-04-11T05:20:50.259Z,963.50
2023-04-11T05:21:50.259Z,963.50
2023-04-11T05:22:50.224Z,963.51
2023-04-11T05:23:50.273Z,963.55
2023-04-11T05:24:50.036Z,963.56
2023-04-11T05:25:49.989Z,963.55
2023-04-11T05:26:50.088Z,963.69
2023-04-11T05:27:49.895Z,963.61
2023-04-11T05:28:51.128Z,963.63
2023-04-11T05:29:49.829Z,963.61
2023-04-11T05:30:49.802Z,963.63
2023-04-11T05:31:49.947Z,963.59
2023-04-11T05:32:49.694Z,963.60
2023-04-11T05:33:50.762Z,963.65
2023-04-11T05:34:49.579Z,963.59
2023-04-11T05:35:49.830Z,963.58
2023-04-11T05:36:49.486Z,963.57
2023-04-11T05:37:49.761Z,963.57
2023-04-11T05:38:49.395Z,963.55
2023-04-11T05:39:49.575Z,963.50
2023-04-11T05:40:49.302Z,963.58
2023-04-11T05:41:49.263Z,963.49
2023-04-11T05:42:49.217Z,963.48
2023-04-11T05:43:50.621Z,963.51
2023-04-11T05:44:49.124Z,963.60
2023-04-11T05:45:49.239Z,963.59
2023-04-11T05:46:49.213Z,963.56
2023-04-11T05:47:49.047Z,963.58
2023-04-11T05:48:49.032Z,963.62
2023-04-11T05:49:48.914Z,963.59
2023-04-11T05:50:49.050Z,963.56
2023-04-11T05:51:48.805Z,963.60
2023-04-11T05:52:48.853Z,963.62
2023-04-11T05:53:48.715Z,963.68
2023-04-11T05:54:48.867Z,963.69
2023-04-11T05:55:48.718Z,963.68
2023-04-11T05:56:48.674Z,963.75
2023-04-11T05:57:48.541Z,963.73
2023-04-11T05:58:48.691Z,963.71
2023-04-11T05:59:48.441Z,963.66
2023-04-11T06:03:47.419Z,963.55
2023-04-11T06:04:46.974Z,963.52
2023-04-11T06:05:46.894Z,963.57
2023-04-11T06:06:46.786Z,963.52
2023-04-11T06:07:47.120Z,963.56
2023-04-11T06:08:46.673Z,963.48
2023-04-11T06:09:46.723Z,963.49
2023-04-11T06:10:46.579Z,963.41
2023-04-11T06:11:46.748Z,963.44
2023-04-11T06:12:46.512Z,963.38
2023-04-11T06:13:46.599Z,963.42
2023-04-11T06:14:46.399Z,963.42
2023-04-11T06:15:46.603Z,963.39
2023-04-11T06:16:46.307Z,963.50
2023-04-11T06:17:46.395Z,963.53
2023-04-11T06:18:46.209Z,963.68
2023-04-11T06:19:46.382Z,963.69
2023-04-11T06:20:46.121Z,963.70
2023-04-11T06:21:46.193Z,963.74
2023-04-11T06:22:46.027Z,963.72
2023-04-11T06:23:46.206Z,963.77
2023-04-11T06:24:46.017Z,963.72
2023-04-11T06:25:46.088Z,963.74
2023-04-11T06:26:46.034Z,963.68
2023-04-11T06:27:45.850Z,963.67
2023-04-11T06:28:45.833Z,963.65
2023-04-11T06:29:45.848Z,963.64
2023-04-11T06:30:45.671Z,963.65
2023-04-11T06:31:46.099Z,963.71
2023-04-11T06:32:45.688Z,963.74
2023-04-11T06:33:45.666Z,963.77
2023-04-11T06:34:45.496Z,963.80
2023-04-11T06:35:45.741Z,963.78
2023-04-11T06:36:45.390Z,963.79
2023-04-11T06:37:45.702Z,963.85
2023-04-11T06:38:45.305Z,963.82
2023-04-11T06:39:45.519Z,963.79
2023-04-11T06:40:45.314Z,963.84
2023-04-11T06:41:45.170Z,963.83
2023-04-11T06:42:45.324Z,963.90
2023-04-11T06:43:45.073Z,963.93
2023-04-11T06:44:45.183Z,963.89
2023-04-11T06:45:45.192Z,963.90
2023-04-11T06:46:45.201Z,963.88
2023-04-11T06:47:44.922Z,963.92
2023-04-11T06:48:44.964Z,963.98
2023-04-11T06:49:44.807Z,963.89
2023-04-11T06:50:44.977Z,963.96
2023-04-11T06:51:44.711Z,963.99
2023-04-11T06:52:45.401Z,963.97
2023-04-11T06:53:44.626Z,964.03
2023-04-11T06:54:44.803Z,964.01
2023-04-11T06:55:44.566Z,963.97
2023-04-11T06:56:44.511Z,963.98
2023-04-11T06:57:44.452Z,964.01
2023-04-11T06:58:44.626Z,964.10
2023-04-11T06:59:44.478Z,964.14
2023-04-11T07:00:44.436Z,964.17
2023-04-11T07:01:44.416Z,964.28
2023-04-11T07:02:44.711Z,964.26
2023-04-11T07:03:44.314Z,964.31
2023-04-11T07:04:44.380Z,964.30
2023-04-11T07:05:44.078Z,964.35
2023-04-11T07:06:44.289Z,964.46
2023-04-11T07:07:44.292Z,964.49
2023-04-11T07:08:43.939Z,964.59
2023-04-11T07:09:44.105Z,964.63
2023-04-11T07:10:43.853Z,964.63
2023-04-11T07:11:43.905Z,964.68
2023-04-11T07:12:43.779Z,964.67
2023-04-11T07:13:43.905Z,964.69
2023-04-11T07:14:43.929Z,964.71
2023-04-11T07:15:43.629Z,964.66
2023-04-11T07:16:43.834Z,964.80
2023-04-11T07:17:43.584Z,964.73
2023-04-11T07:18:43.486Z,964.76
2023-04-11T07:19:43.608Z,964.73
2023-04-11T07:20:43.578Z,964.72
2023-04-11T07:21:43.353Z,964.68
2023-04-11T07:22:43.600Z,964.74
2023-04-11T07:23:43.300Z,964.71
2023-04-11T07:24:43.214Z,964.68
2023-04-11T07:25:43.399Z,964.77
2023-04-11T07:26:43.131Z,964.74
2023-04-11T07:27:43.203Z,964.78
2023-04-11T07:28:43.259Z,964.80
2023-04-11T07:29:42.996Z,964.77
2023-04-11T07:30:42.960Z,964.79
2023-04-11T07:31:43.033Z,964.90
2023-04-11T07:32:42.890Z,964.90
2023-04-11T07:33:43.042Z,964.91
2023-04-11T07:34:42.798Z,964.97
2023-04-11T07:35:42.862Z,964.98
2023-04-11T07:36:42.683Z,965.03
2023-04-11T07:37:42.866Z,965.04
2023-04-11T07:38:42.919Z,964.97
2023-04-11T07:39:42.675Z,964.98
2023-04-11T07:40:42.492Z,965.02
2023-04-11T07:41:42.691Z,965.16
2023-04-11T07:42:42.394Z,964.94
2023-04-11T07:43:42.496Z,964.96
2023-04-11T07:44:42.332Z,964.91
2023-04-11T07:45:42.562Z,964.86
2023-04-11T07:46:42.229Z,964.84
2023-04-11T07:47:42.346Z,964.93
2023-04-11T07:48:42.131Z,964.93
2023-04-11T07:49:42.336Z,964.93
2023-04-11T07:50:42.198Z,964.96
2023-04-11T07:51:41.995Z,964.91
2023-04-11T07:52:42.166Z,965.00
2023-04-11T07:53:41.897Z,965.01
2023-04-11T07:54:41.876Z,964.97
2023-04-11T07:55:41.980Z,965.04
2023-04-11T07:56:41.977Z,965.01
2023-04-11T07:57:41.720Z,964.98
2023-04-11T07:58:41.787Z,965.08
2023-04-11T07:59:41.631Z,965.02
2023-04-11T08:00:42.046Z,965.08
2023-04-11T08:01:41.594Z,965.02
2023-04-11T08:02:41.590Z,965.04
2023-04-11T08:03:41.767Z,965.00
2023-04-11T08:04:41.446Z,965.01
2023-04-11T08:05:41.635Z,964.95
2023-04-11T08:06:41.388Z,965.03
2023-04-11T08:07:41.271Z,964.97
2023-04-11T08:08:41.460Z,965.00
2023-04-11T08:09:41.186Z,965.04
2023-04-11T08:10:41.283Z,965.02
2023-04-11T08:11:41.091Z,965.07
2023-04-11T08:12:41.487Z,965.05
2023-04-11T08:13:41.005Z,965.04
2023-04-11T08:14:41.100Z,965.03
2023-04-11T08:15:40.914Z,965.04
2023-04-11T08:16:41.138Z,965.07
2023-04-11T08:17:40.963Z,965.12
2023-04-11T08:18:40.803Z,965.04
2023-04-11T08:19:40.737Z,965.03
2023-04-11T08:20:41.012Z,965.03
2023-04-11T08:21:40.646Z,964.98
2023-04-11T08:22:40.738Z,965.01
2023-04-11T08:23:40.810Z,965.00
2023-04-11T08:24:40.516Z,965.03
2023-04-11T08:25:40.763Z,965.04
2023-04-11T08:26:40.434Z,965.08
2023-04-11T08:27:40.572Z,965.09
2023-04-11T08:28:42.687Z,965.12
2023-04-11T08:29:40.305Z,965.17
2023-04-11T08:30:40.283Z,965.25
2023-04-11T08:31:40.823Z,965.23
2023-04-11T08:32:40.166Z,965.16
2023-04-11T08:33:40.238Z,965.22
2023-04-11T08:34:40.068Z,965.22
2023-04-11T08:35:40.058Z,965.25
2023-04-11T08:36:40.229Z,965.31
2023-04-11T08:37:40.028Z,965.29
2023-04-11T08:38:40.052Z,965.33
2023-04-11T08:39:39.842Z,965.42
2023-04-11T08:40:39.902Z,965.26
2023-04-11T08:41:39.751Z,965.34
2023-04-11T08:42:39.860Z,965.29
2023-04-11T08:43:39.956Z,965.31
2023-04-11T08:44:39.875Z,965.28
2023-04-11T08:45:39.600Z,965.29
2023-04-11T08:46:39.552Z,965.29
2023-04-11T08:47:39.748Z,965.33
2023-04-11T08:48:39.450Z,965.38
2023-04-11T08:49:39.511Z,965.47
2023-04-11T08:50:39.352Z,965.40
2023-04-11T08:51:39.517Z,965.50
2023-04-11T08:52:39.263Z,965.49
2023-04-11T08:53:39.324Z,965.34
2023-04-11T08:54:39.167Z,965.33
2023-04-11T08:55:39.553Z,965.32
2023-04-11T08:56:39.078Z,965.35
2023-04-11T08:57:39.027Z,965.32
2023-04-11T08:58:38.995Z,965.37
2023-04-11T08:59:39.178Z,965.42
2023-04-11T09:00:38.900Z,965.38
2023-04-11T09:01:39.104Z,965.44
2023-04-11T09:02:38.880Z,965.46
2023-04-11T09:03:38.824Z,965.66
2023-04-11T09:04:39.045Z,965.46
2023-04-11T09:05:38.854Z,965.50
2023-04-11T09:06:38.896Z,965.56
2023-04-11T09:07:38.593Z,965.63
2023-04-11T09:08:38.543Z,965.56
2023-04-11T09:09:38.623Z,965.41
2023-04-11T09:10:38.470Z,965.49
2023-04-11T09:11:38.637Z,965.36
2023-04-11T09:12:38.365Z,965.52
2023-04-11T09:13:38.460Z,965.44
2023-04-11T09:14:38.298Z,965.48
2023-04-11T09:15:38.483Z,965.54
2023-04-11T09:16:38.318Z,965.49
2023-04-11T09:17:38.361Z,965.41
2023-04-11T09:18:38.109Z,965.46
2023-04-11T09:19:38.288Z,965.39
2023-04-11T09:20:38.077Z,965.41
2023-04-11T09:21:38.097Z,965.48
2023-04-11T09:22:37.923Z,965.48
2023-04-11T09:23:38.137Z,965.54
2023-04-11T09:24:37.865Z,965.47
2023-04-11T09:25:37.808Z,965.42
2023-04-11T09:26:38.144Z,965.37
2023-04-11T09:27:37.710Z,965.43
2023-04-11T09:28:37.955Z,965.53
2023-04-11T09:29:37.807Z,965.53
2023-04-11T09:30:37.776Z,965.57
2023-04-11T09:31:37.549Z,965.59
2023-04-11T09:32:37.813Z,965.58
2023-04-11T09:33:37.429Z,965.61
2023-04-11T09:34:37.642Z,965.61
2023-04-11T09:35:37.390Z,965.58
2023-04-11T09:36:37.310Z,965.59
2023-04-11T09:37:37.262Z,965.47
2023-04-11T09:38:37.625Z,965.48
2023-04-11T09:39:37.172Z,965.61
2023-04-11T09:40:37.425Z,965.57
2023-04-11T09:41:37.084Z,965.57
2023-04-11T09:42:37.043Z,965.50
2023-04-11T09:43:37.277Z,965.43
2023-04-11T09:44:37.120Z,965.60
2023-04-11T09:45:47.797Z,965.48
2023-04-11T09:46:36.880Z,965.54
2023-04-11T09:47:37.100Z,965.47
2023-04-11T09:48:46.443Z,965.39
2023-04-11T09:49:36.736Z,965.47
2023-04-11T09:50:38.120Z,965.48
2023-04-11T09:51:37.313Z,965.49
2023-04-11T09:52:36.898Z,965.37
2023-04-11T09:53:37.724Z,965.46
2023-04-11T09:54:36.532Z,965.43
2023-04-11T09:55:36.713Z,965.45
2023-04-11T09:56:36.559Z,965.47
2023-04-11T09:57:36.529Z,965.50
2023-04-11T09:58:36.365Z,965.46
2023-04-11T09:59:36.590Z,965.39
2023-04-11T10:00:36.286Z,965.43
2023-04-11T10:01:36.583Z,965.43
2023-04-11T10:02:36.328Z,965.39
2023-04-11T10:03:36.368Z,965.36
2023-04-11T10:04:36.219Z,965.44
2023-04-11T10:05:36.079Z,965.52
2023-04-11T10:06:36.190Z,965.52
2023-04-11T10:07:35.999Z,965.61
2023-04-11T10:08:36.208Z,965.55
2023-04-11T10:09:35.919Z,965.64
2023-04-11T10:10:36.252Z,965.66
2023-04-11T10:11:35.843Z,965.63
2023-04-11T10:12:36.030Z,965.68
2023-04-11T10:13:35.754Z,965.71
2023-04-11T10:14:36.040Z,965.68
2023-04-11T10:15:35.674Z,965.66
2023-04-11T10:16:35.713Z,965.68
2023-04-11T10:17:35.639Z,965.77
2023-04-11T10:18:35.864Z,965.72
2023-04-11T10:19:36.738Z,965.74
2023-04-11T10:20:35.670Z,965.75
2023-04-11T10:21:35.430Z,965.69
2023-04-11T10:22:35.392Z,965.75
2023-04-11T10:23:36.712Z,965.76
2023-04-11T10:24:35.324Z,965.74
2023-04-11T10:25:35.910Z,965.66
2023-04-11T10:26:35.249Z,965.71
2023-04-11T10:27:35.416Z,965.76
2023-04-11T10:28:35.162Z,965.76
2023-04-11T10:29:35.322Z,965.74
2023-04-11T10:30:35.074Z,965.70
2023-04-11T10:31:36.302Z,965.63
2023-04-11T10:32:35.012Z,965.60
2023-04-11T10:33:34.969Z,965.66
2023-04-11T10:34:34.910Z,965.55
2023-04-11T10:35:35.089Z,965.56
2023-04-11T10:36:34.827Z,965.53
2023-04-11T10:37:34.871Z,965.60
2023-04-11T10:38:34.746Z,965.61
2023-04-11T10:39:34.717Z,965.63
2023-04-11T10:40:34.663Z,965.56
2023-04-11T10:41:34.907Z,965.45
2023-04-11T10:42:34.574Z,965.50
2023-04-11T10:43:35.409Z,965.60
2023-04-11T10:44:34.494Z,965.54
2023-04-11T10:45:34.460Z,965.57
2023-04-11T10:46:34.561Z,965.51
2023-04-11T10:47:34.440Z,965.50
2023-04-11T10:48:34.559Z,965.49
2023-04-11T10:49:34.291Z,965.48
2023-04-11T10:50:34.255Z,965.44
2023-04-11T10:51:34.203Z,965.39
2023-04-11T10:52:34.365Z,965.46
2023-04-11T10:53:34.220Z,965.48
2023-04-11T10:54:35.200Z,965.48
2023-04-11T10:55:34.033Z,965.53
2023-04-11T10:56:33.986Z,965.56
2023-04-11T10:57:33.945Z,965.53
2023-04-11T10:58:34.004Z,965.56
2023-04-11T10:59:33.925Z,965.52
2023-04-11T11:00:35.124Z,965.48
2023-04-11T11:01:42.742Z,965.53
2023-04-11T11:02:34.015Z,965.54
2023-04-11T11:03:34.020Z,965.50
2023-04-11T11:04:33.791Z,965.54
2023-04-11T11:05:33.638Z,965.65
2023-04-11T11:06:34.799Z,965.67
2023-04-11T11:07:33.522Z,965.57
2023-04-11T11:08:33.706Z,965.55
2023-04-11T11:09:33.431Z,965.55
2023-04-11T11:10:33.472Z,965.53
2023-04-11T11:11:33.536Z,965.67
2023-04-11T11:12:33.493Z,965.67
2023-04-11T11:13:33.262Z,965.64
2023-04-11T11:14:33.307Z,965.65
2023-04-11T11:15:33.173Z,965.62
2023-04-11T11:16:33.518Z,965.60
2023-04-11T11:17:33.108Z,965.63
2023-04-11T11:18:33.045Z,965.61
2023-04-11T11:19:33.144Z,965.58
2023-04-11T11:20:32.961Z,965.56
2023-04-11T11:21:33.144Z,965.60
2023-04-11T11:22:33.059Z,965.65
2023-04-11T11:23:33.537Z,965.63
2023-04-11T11:24:32.788Z,965.71
2023-04-11T11:25:32.989Z,965.73
2023-04-11T11:26:32.699Z,965.72
2023-04-11T11:27:32.777Z,965.74
2023-04-11T11:28:32.857Z,965.73
2023-04-11T11:29:32.587Z,965.79
2023-04-11T11:30:32.527Z,965.87
2023-04-11T11:31:32.609Z,965.81
2023-04-11T11:32:32.523Z,965.82
2023-04-11T11:33:32.627Z,965.82
2023-04-11T11:34:32.360Z,965.79
2023-04-11T11:35:32.374Z,965.80
2023-04-11T11:36:32.674Z,965.81
2023-04-11T11:37:32.226Z,965.79
2023-04-11T11:38:32.242Z,965.83
2023-04-11T11:39:32.143Z,965.86
2023-04-11T11:40:32.104Z,965.84
2023-04-11T11:41:32.273Z,965.82
2023-04-11T11:42:32.045Z,965.82
2023-04-11T11:43:32.083Z,965.77
2023-04-11T11:44:31.938Z,965.79
2023-04-11T11:45:32.302Z,965.76
2023-04-11T11:46:31.927Z,965.76
2023-04-11T11:47:31.857Z,965.75
2023-04-11T11:48:31.913Z,965.80
2023-04-11T11:49:31.720Z,965.77
2023-04-11T11:50:31.719Z,965.77
2023-04-11T11:51:31.627Z,965.77
2023-04-11T11:52:32.784Z,965.78
2023-04-11T11:53:31.790Z,965.78
2023-04-11T11:54:31.545Z,965.76
2023-04-11T11:55:31.459Z,965.79
2023-04-11T11:56:31.563Z,965.79
2023-04-11T11:57:31.414Z,965.76
2023-04-11T11:58:31.372Z,965.79
2023-04-11T11:59:31.431Z,965.77
2023-04-11T12:00:31.388Z,965.84
2023-04-11T12:01:31.207Z,965.81
2023-04-11T12:02:31.346Z,965.82
2023-04-11T12:03:31.247Z,965.80
2023-04-11T12:04:31.321Z,965.81
2023-04-11T12:05:31.112Z,965.84
2023-04-11T12:06:31.010Z,965.85
2023-04-11T12:07:31.024Z,965.84
2023-04-11T12:08:33.082Z,965.86
2023-04-11T12:09:31.098Z,965.74
2023-04-11T12:10:31.049Z,965.81
2023-04-11T12:11:30.778Z,965.80
2023-04-11T12:12:30.857Z,965.84
2023-04-11T12:13:30.693Z,965.86
2023-04-11T12:14:30.653Z,965.85
2023-04-11T12:15:30.946Z,965.83
2023-04-11T12:16:30.686Z,965.84
2023-04-11T12:17:30.741Z,965.87
2023-04-11T12:18:30.488Z,965.85
2023-04-11T12:19:30.472Z,965.86
2023-04-11T12:20:30.555Z,965.85
2023-04-11T12:21:30.513Z,965.83
2023-04-11T12:22:30.319Z,965.81
2023-04-11T12:23:31.369Z,965.78
2023-04-11T12:24:30.242Z,965.69
2023-04-11T12:25:30.200Z,965.75
2023-04-11T12:26:30.348Z,965.74
2023-04-11T12:27:30.307Z,965.70
2023-04-11T12:28:30.175Z,965.70
2023-04-11T12:29:30.042Z,965.66
2023-04-11T12:30:30.202Z,965.70